createdAt,value
2022-12-29T00:02:20.881Z,6.00
2022-12-29T00:04:47.864Z,6.97
2022-12-29T00:07:14.340Z,8.20
2022-12-29T00:09:40.807Z,9.85
2022-12-29T00:12:07.626Z,10.43
2022-12-29T00:14:52.807Z,10.50
2022-12-29T00:17:19.415Z,7.05
2022-12-29T00:20:04.644Z,7.45
2022-12-29T00:22:49.606Z,10.30
2022-12-29T00:25:34.894Z,6.57
2022-12-29T00:28:19.986Z,6.25
2022-12-29T00:31:05.138Z,8.57
2022-12-29T00:33:52.769Z,7.43
2022-12-29T00:36:32.594Z,8.95
2022-12-29T00:39:27.114Z,7.55
2022-12-29T00:42:12.444Z,7.78
2022-12-29T00:44:39.011Z,7.38
2022-12-29T00:47:05.659Z,7.05
2022-12-29T00:49:33.808Z,7.45
2022-12-29T00:52:09.070Z,4.68
2022-12-29T00:54:38.605Z,8.07
2022-12-29T00:57:07.611Z,7.15
2022-12-29T00:59:36.354Z,7.85
2022-12-29T01:02:03.090Z,7.88
2022-12-29T01:04:29.750Z,7.32
2022-12-29T01:06:56.288Z,8.50
2022-12-29T01:09:41.622Z,11.05
2022-12-29T01:12:09.220Z,9.10
2022-12-29T01:14:36.459Z,6.68
2022-12-29T01:17:02.945Z,6.05
2022-12-29T01:19:29.598Z,6.30
2022-12-29T01:21:56.088Z,7.63
2022-12-29T01:24:23.196Z,6.80
2022-12-29T01:26:50.357Z,9.02
2022-12-29T01:29:17.500Z,9.27
2022-12-29T01:31:44.967Z,7.97
2022-12-29T01:34:11.791Z,6.32
2022-12-29T01:36:38.375Z,9.18
2022-12-29T01:39:04.990Z,7.30
2022-12-29T01:41:32.525Z,8.55
2022-12-29T01:44:02.135Z,7.45
2022-12-29T01:46:40.060Z,6.45
2022-12-29T01:49:09.361Z,8.40
2022-12-29T01:51:51.920Z,8.32
2022-12-29T01:54:31.879Z,6.72
2022-12-29T01:57:02.620Z,6.13
2022-12-29T01:59:32.575Z,5.20
2022-12-29T02:01:59.791Z,7.40
2022-12-29T02:04:27.858Z,7.82
2022-12-29T02:07:00.628Z,5.32
2022-12-29T02:09:27.492Z,5.78
2022-12-29T02:11:54.992Z,6.35
2022-12-29T02:14:21.493Z,8.18
2022-12-29T02:16:59.922Z,6.68
2022-12-29T02:19:44.344Z,5.88
2022-12-29T02:22:24.085Z,5.18
2022-12-29T02:25:15.348Z,6.10
2022-12-29T02:28:14.047Z,5.75
2022-12-29T02:31:00.159Z,7.68
2022-12-29T02:33:56.034Z,6.80
2022-12-29T02:36:48.340Z,4.55
2022-12-29T02:39:24.412Z,6.03
2022-12-29T02:42:03.516Z,5.82
2022-12-29T02:44:51.499Z,8.05
2022-12-29T02:47:37.891Z,5.53
2022-12-29T02:50:19.422Z,6.43
2022-12-29T02:52:58.338Z,5.65
2022-12-29T02:55:24.898Z,6.25
2022-12-29T02:58:15.714Z,5.03
2022-12-29T03:01:21.188Z,6.25
2022-12-29T03:04:20.129Z,7.10
2022-12-29T03:07:20.760Z,6.28
2022-12-29T03:10:19.482Z,6.95
2022-12-29T03:13:26.258Z,7.10
2022-12-29T03:16:21.070Z,6.27
2022-12-29T03:19:11.557Z,5.13
2022-12-29T03:22:01.458Z,5.65
2022-12-29T03:24:31.108Z,5.55
2022-12-29T03:27:00.699Z,5.97
2022-12-29T03:29:32.048Z,6.25
2022-12-29T03:32:00.643Z,7.53
2022-12-29T03:34:29.057Z,4.38
2022-12-29T03:37:02.384Z,7.10
2022-12-29T03:39:29.775Z,6.53
2022-12-29T03:42:02.412Z,6.43
2022-12-29T03:44:34.364Z,5.68
2022-12-29T03:47:00.890Z,9.85
2022-12-29T03:49:27.402Z,6.30
2022-12-29T03:51:53.950Z,5.95
2022-12-29T03:54:20.682Z,7.20
2022-12-29T03:56:47.205Z,6.88
2022-12-29T03:59:13.940Z,7.20
2022-12-29T04:01:41.362Z,5.60
2022-12-29T04:04:08.035Z,4.88
2022-12-29T04:06:34.611Z,10.52
2022-12-29T04:09:01.211Z,5.68
2022-12-29T04:11:32.897Z,9.90
2022-12-29T04:13:59.884Z,7.82
2022-12-29T04:16:26.434Z,6.50
2022-12-29T04:18:52.983Z,7.03
2022-12-29T04:21:19.501Z,7.25
2022-12-29T04:23:46.071Z,7.45
2022-12-29T04:26:13.207Z,9.40
2022-12-29T04:28:40.010Z,7.10
2022-12-29T04:31:06.683Z,5.22
2022-12-29T04:33:34.071Z,5.53
2022-12-29T04:36:00.655Z,8.10
2022-12-29T04:38:27.172Z,7.00
2022-12-29T04:40:53.775Z,6.78
2022-12-29T04:43:20.518Z,6.65
2022-12-29T04:45:48.757Z,6.78
2022-12-29T04:48:15.930Z,5.78
2022-12-29T04:50:42.960Z,6.85
2022-12-29T04:53:09.654Z,6.13
2022-12-29T04:55:36.240Z,6.90
2022-12-29T04:58:02.721Z,6.50
2022-12-29T05:00:29.298Z,5.57
2022-12-29T05:02:55.983Z,6.93
2022-12-29T05:05:22.636Z,5.72
2022-12-29T05:07:49.205Z,5.03
2022-12-29T05:10:15.736Z,7.63
2022-12-29T05:12:42.318Z,7.15
2022-12-29T05:15:10.454Z,6.32
2022-12-29T05:17:37.248Z,4.65
2022-12-29T05:20:06.053Z,6.78
2022-12-29T05:22:32.549Z,5.30
2022-12-29T05:24:59.578Z,9.57
2022-12-29T05:27:26.165Z,5.22
2022-12-29T05:29:52.662Z,6.60
2022-12-29T05:32:19.196Z,6.13
2022-12-29T05:34:45.696Z,6.70
2022-12-29T05:37:12.297Z,5.75
2022-12-29T05:39:38.803Z,6.78
2022-12-29T05:42:05.331Z,6.43
2022-12-29T05:44:31.877Z,8.10
2022-12-29T05:46:58.454Z,6.70
2022-12-29T05:49:25.046Z,5.93
2022-12-29T05:51:51.564Z,6.38
2022-12-29T05:54:18.046Z,8.77
2022-12-29T05:56:45.133Z,6.75
2022-12-29T05:59:11.708Z,7.65
2022-12-29T06:01:38.400Z,6.82
2022-12-29T06:04:05.042Z,7.65
2022-12-29T06:06:31.539Z,7.03
2022-12-29T06:08:58.074Z,5.68
2022-12-29T06:11:24.626Z,7.25
2022-12-29T06:13:51.160Z,6.32
2022-12-29T06:16:17.839Z,8.73
2022-12-29T06:18:44.468Z,7.93
2022-12-29T06:21:10.958Z,7.35
2022-12-29T06:23:37.513Z,8.43
2022-12-29T06:26:04.107Z,6.47
2022-12-29T06:28:30.588Z,9.43
2022-12-29T06:30:57.159Z,8.82
2022-12-29T06:33:23.874Z,6.88
2022-12-29T06:35:50.644Z,7.82
2022-12-29T06:38:17.185Z,11.02
2022-12-29T06:40:46.164Z,7.13
2022-12-29T06:43:13.002Z,7.13
2022-12-29T06:45:41.343Z,6.15
2022-12-29T06:48:08.628Z,7.40
2022-12-29T06:50:35.435Z,6.22
2022-12-29T06:53:01.960Z,5.95
2022-12-29T06:55:29.286Z,7.22
2022-12-29T06:57:59.745Z,8.07
2022-12-29T07:00:26.503Z,6.50
2022-12-29T07:02:53.445Z,8.52
2022-12-29T07:05:20.146Z,6.70
2022-12-29T07:07:46.957Z,7.57
2022-12-29T07:10:13.583Z,7.25
2022-12-29T07:12:40.110Z,8.38
2022-12-29T07:15:07.153Z,7.10
2022-12-29T07:17:33.735Z,6.95
2022-12-29T07:20:00.508Z,7.53
2022-12-29T07:22:27.063Z,7.93
2022-12-29T07:31:31.649Z,6.45
2022-12-29T07:33:58.214Z,5.95
2022-12-29T07:36:28.004Z,7.70
2022-12-29T07:38:57.360Z,9.32
2022-12-29T07:41:24.046Z,7.70
2022-12-29T07:43:50.600Z,8.13
2022-12-29T07:46:55.434Z,10.13
2022-12-29T07:49:03.576Z,6.50
2022-12-29T07:51:30.072Z,6.00
2022-12-29T07:53:56.599Z,6.88
2022-12-29T07:56:23.121Z,8.77
2022-12-29T07:58:50.237Z,6.28
2022-12-29T08:01:17.206Z,9.75
2022-12-29T08:03:43.905Z,7.30
2022-12-29T08:06:11.812Z,8.30
2022-12-29T08:08:39.151Z,5.72
2022-12-29T08:11:05.615Z,7.68
2022-12-29T08:13:32.113Z,7.65
2022-12-29T08:16:00.041Z,6.85
2022-12-29T08:18:26.692Z,5.90
2022-12-29T08:20:55.861Z,11.98
2022-12-29T08:23:22.639Z,8.63
2022-12-29T08:25:58.908Z,8.30
2022-12-29T08:28:25.446Z,7.38
2022-12-29T08:30:52.047Z,7.80
2022-12-29T08:33:18.701Z,7.13
2022-12-29T08:35:46.008Z,6.78
2022-12-29T08:38:12.675Z,6.35
2022-12-29T08:40:39.152Z,6.75
2022-12-29T08:43:06.342Z,7.38
2022-12-29T08:45:33.441Z,8.27
2022-12-29T08:47:59.934Z,10.02
2022-12-29T08:50:26.460Z,10.52
2022-12-29T08:52:52.979Z,8.38
2022-12-29T08:55:19.679Z,9.88
2022-12-29T08:57:46.324Z,6.78
2022-12-29T09:00:13.225Z,7.05
2022-12-29T09:02:40.007Z,8.15
2022-12-29T09:05:07.203Z,8.80
2022-12-29T09:07:33.838Z,9.82
2022-12-29T09:10:00.346Z,9.02
2022-12-29T09:12:30.212Z,8.35
2022-12-29T09:14:59.714Z,7.97
2022-12-29T09:17:44.591Z,10.82
2022-12-29T09:20:16.877Z,10.43
2022-12-29T09:22:44.580Z,8.15
2022-12-29T09:25:12.185Z,11.48
2022-12-29T09:27:39.401Z,9.63
2022-12-29T09:30:08.787Z,12.60
2022-12-29T09:32:40.424Z,12.45
2022-12-29T09:35:10.336Z,11.13
2022-12-29T09:37:37.255Z,9.20
2022-12-29T09:40:05.221Z,9.88
2022-12-29T09:42:50.695Z,9.13
2022-12-29T09:45:30.294Z,8.25
2022-12-29T09:47:56.929Z,10.57
2022-12-29T09:50:31.446Z,10.27
2022-12-29T09:53:18.586Z,7.60
2022-12-29T09:55:55.215Z,9.75
2022-12-29T09:58:36.193Z,7.90
2022-12-29T10:01:27.434Z,7.15
2022-12-29T10:03:57.709Z,7.82
2022-12-29T10:06:56.206Z,9.60
2022-12-29T10:09:31.001Z,10.45
2022-12-29T10:12:00.584Z,10.50
2022-12-29T10:14:45.470Z,8.38
2022-12-29T10:17:23.841Z,9.27
2022-12-29T10:20:27.509Z,7.65
2022-12-29T10:23:21.682Z,6.13
2022-12-29T10:25:48.704Z,8.05
2022-12-29T10:28:44.518Z,8.73
2022-12-29T10:31:21.076Z,9.98
2022-12-29T10:33:51.357Z,8.55
2022-12-29T10:36:49.241Z,7.32
2022-12-29T10:39:24.546Z,5.93
2022-12-29T10:41:58.610Z,6.63
2022-12-29T10:44:33.667Z,6.68
2022-12-29T10:47:05.813Z,6.78
2022-12-29T10:49:38.179Z,7.95
2022-12-29T10:52:05.418Z,7.22
2022-12-29T10:54:46.998Z,7.43
2022-12-29T10:57:18.593Z,7.18
2022-12-29T10:59:45.164Z,6.85
2022-12-29T11:02:19.235Z,8.65
2022-12-29T11:05:15.927Z,7.00
2022-12-29T11:07:42.924Z,8.45
2022-12-29T11:10:22.086Z,7.47
2022-12-29T11:13:04.386Z,7.45
2022-12-29T11:15:42.318Z,7.13
2022-12-29T11:18:26.759Z,9.18
2022-12-29T11:21:01.755Z,7.88
2022-12-29T11:23:40.496Z,8.38
2022-12-29T11:26:23.954Z,7.70
2022-12-29T11:29:17.609Z,7.63
2022-12-29T11:31:50.906Z,9.13
2022-12-29T11:34:26.191Z,7.38
2022-12-29T11:37:01.085Z,7.47
2022-12-29T11:39:34.027Z,7.43
2022-12-29T11:42:03.568Z,6.43
2022-12-29T11:44:38.121Z,6.72
2022-12-29T11:47:06.489Z,8.93
2022-12-29T11:49:33.283Z,8.30
2022-12-29T11:52:01.227Z,6.53
2022-12-29T11:54:38.250Z,9.75
2022-12-29T11:57:14.394Z,5.90
2022-12-29T12:02:45.851Z,7.65
2022-12-29T12:05:21.131Z,6.72
2022-12-29T12:07:55.409Z,8.60
2022-12-29T12:10:32.972Z,9.68
2022-12-29T12:13:05.034Z,7.45
2022-12-29T12:15:45.377Z,7.13
2022-12-29T12:18:26.617Z,9.57
2022-12-29T12:20:58.005Z,7.75
2022-12-29T12:24:14.545Z,8.48
2022-12-29T12:26:55.469Z,7.63
2022-12-29T12:29:30.079Z,8.90
2022-12-29T12:32:00.706Z,7.18
2022-12-29T12:34:37.292Z,7.25
2022-12-29T12:37:12.009Z,6.32
2022-12-29T12:39:50.756Z,6.43
2022-12-29T12:42:23.166Z,7.68
2022-12-29T12:45:26.174Z,6.78
2022-12-29T12:48:11.792Z,7.28
2022-12-29T12:50:50.505Z,7.15
2022-12-29T12:53:20.014Z,8.40
2022-12-29T12:56:02.329Z,7.50
2022-12-29T12:58:44.423Z,7.97
2022-12-29T13:02:08.584Z,11.70
2022-12-29T13:05:03.467Z,7.63
2022-12-29T13:07:54.594Z,8.07
2022-12-29T13:10:42.031Z,7.45
2022-12-29T13:13:38.932Z,8.07
2022-12-29T13:16:23.986Z,8.38
2022-12-29T13:18:57.377Z,7.75
2022-12-29T13:21:35.639Z,8.10
2022-12-29T13:24:21.182Z,6.70
2022-12-29T13:26:56.181Z,9.50
2022-12-29T13:29:42.965Z,7.15
2022-12-29T13:32:18.662Z,8.98
2022-12-29T13:34:54.499Z,8.45
2022-12-29T13:37:26.902Z,9.05
2022-12-29T13:40:00.640Z,8.10
2022-12-29T13:42:28.424Z,7.65
2022-12-29T13:45:06.213Z,9.73
2022-12-29T13:47:39.564Z,8.80
2022-12-29T13:50:13.440Z,8.35
2022-12-29T13:52:49.026Z,8.00
2022-12-29T13:55:31.298Z,8.15
2022-12-29T13:58:04.114Z,7.00
2022-12-29T14:00:41.499Z,7.00
2022-12-29T14:03:45.426Z,9.65
2022-12-29T14:06:25.519Z,9.98
2022-12-29T14:08:57.014Z,7.53
2022-12-29T14:11:32.354Z,6.70
2022-12-29T14:14:00.652Z,7.75
2022-12-29T14:16:31.447Z,8.00
2022-12-29T14:19:10.699Z,10.38
2022-12-29T14:21:38.540Z,9.43
2022-12-29T14:24:29.107Z,8.60
2022-12-29T14:26:55.625Z,7.18
2022-12-29T14:29:25.163Z,8.10
2022-12-29T14:31:54.037Z,10.18
2022-12-29T14:34:20.700Z,9.48
2022-12-29T14:36:54.195Z,9.00
2022-12-29T14:39:39.428Z,7.57
2022-12-29T14:42:11.763Z,10.38
2022-12-29T14:44:57.788Z,13.15
2022-12-29T14:47:39.862Z,8.75
2022-12-29T14:50:13.425Z,11.27
2022-12-29T14:53:00.104Z,9.80
2022-12-29T14:55:58.901Z,12.50
2022-12-29T14:58:39.615Z,10.73
2022-12-29T15:01:19.884Z,14.23
2022-12-29T15:03:52.572Z,14.90
2022-12-29T15:06:23.310Z,14.32
2022-12-29T15:09:01.500Z,16.63
2022-12-29T15:11:37.043Z,13.07
2022-12-29T15:14:05.238Z,13.57
2022-12-29T15:16:38.031Z,11.07
2022-12-29T15:19:06.254Z,13.95
2022-12-29T15:21:37.250Z,14.80
2022-12-29T15:24:05.118Z,10.32
2022-12-29T15:26:50.077Z,13.23
2022-12-29T15:29:39.655Z,12.05
2022-12-29T15:32:25.590Z,13.35
2022-12-29T15:34:57.831Z,13.18
2022-12-29T15:37:27.887Z,13.82
2022-12-29T15:39:56.090Z,12.00
2022-12-29T15:42:36.391Z,17.42
2022-12-29T15:45:13.374Z,12.20
2022-12-29T15:47:42.411Z,11.57
2022-12-29T15:50:27.226Z,13.10
2022-12-29T15:52:53.791Z,11.75
2022-12-29T15:55:42.579Z,13.38
2022-12-29T15:58:21.985Z,13.18
2022-12-29T16:00:51.356Z,12.23
2022-12-29T16:03:18.466Z,13.57
2022-12-29T16:05:53.102Z,15.45
2022-12-29T16:08:32.234Z,14.93
2022-12-29T16:10:59.549Z,12.57
2022-12-29T16:13:34.191Z,16.15
2022-12-29T16:16:13.110Z,17.15
2022-12-29T16:21:17.897Z,15.88
2022-12-29T16:23:49.945Z,14.18
2022-12-29T16:26:19.402Z,14.48
2022-12-29T16:28:52.439Z,15.80
2022-12-29T16:31:23.946Z,13.55
2022-12-29T16:33:53.785Z,14.98
2022-12-29T16:36:35.159Z,19.63
2022-12-29T16:39:23.160Z,12.15
2022-12-29T16:41:51.298Z,15.65
2022-12-29T16:44:22.997Z,13.57
2022-12-29T16:47:02.790Z,17.40
2022-12-29T16:49:31.316Z,13.68
2022-12-29T16:51:58.236Z,15.15
2022-12-29T16:54:31.495Z,16.00
2022-12-29T16:56:58.185Z,15.70
2022-12-29T16:59:37.031Z,17.98
2022-12-29T17:02:14.118Z,14.48
2022-12-29T17:04:40.783Z,16.58
2022-12-29T17:07:18.849Z,11.77
2022-12-29T17:09:45.489Z,18.58
2022-12-29T17:12:18.258Z,16.15
2022-12-29T17:15:21.222Z,18.05
2022-12-29T17:17:50.178Z,15.13
2022-12-29T17:20:18.230Z,15.57
2022-12-29T17:22:45.534Z,14.43
2022-12-29T17:25:18.637Z,13.70
2022-12-29T17:27:59.054Z,14.70
2022-12-29T17:30:33.234Z,13.02
2022-12-29T17:33:13.325Z,13.70
2022-12-29T17:35:40.069Z,13.70
2022-12-29T17:38:35.918Z,13.15
2022-12-29T17:41:02.496Z,14.95
2022-12-29T17:43:36.347Z,14.57
2022-12-29T17:46:07.112Z,13.20
2022-12-29T17:48:33.759Z,18.40
2022-12-29T17:51:00.372Z,20.75
2022-12-29T17:53:29.698Z,14.63
2022-12-29T17:55:56.634Z,15.07
2022-12-29T17:58:24.542Z,15.35
2022-12-29T18:00:54.089Z,17.95
2022-12-29T18:03:28.360Z,17.67
2022-12-29T18:05:55.891Z,17.25
2022-12-29T18:08:22.514Z,16.15
2022-12-29T18:10:51.582Z,14.85
2022-12-29T18:13:24.316Z,19.00
2022-12-29T18:15:52.695Z,25.77
2022-12-29T18:18:21.573Z,17.40
2022-12-29T18:20:49.530Z,15.10
2022-12-29T18:23:24.755Z,16.88
2022-12-29T18:26:03.825Z,14.73
2022-12-29T18:28:30.566Z,17.02
2022-12-29T18:30:59.729Z,16.65
2022-12-29T18:33:27.224Z,17.25
2022-12-29T18:36:02.417Z,18.00
2022-12-29T18:38:29.879Z,18.35
2022-12-29T18:40:57.778Z,15.82
2022-12-29T18:43:25.037Z,16.88
2022-12-29T18:45:51.897Z,22.80
2022-12-29T18:48:19.886Z,16.33
2022-12-29T18:50:49.133Z,17.17
2022-12-29T18:53:17.432Z,16.88
2022-12-29T18:55:45.308Z,19.65
2022-12-29T18:58:12.334Z,18.08
2022-12-29T19:00:39.734Z,16.55
2022-12-29T19:03:06.563Z,16.83
2022-12-29T19:05:38.776Z,19.08
2022-12-29T19:08:06.266Z,17.75
2022-12-29T19:10:33.404Z,17.75
2022-12-29T19:13:00.651Z,18.98
2022-12-29T19:15:30.262Z,15.48
2022-12-29T19:18:32.843Z,18.30
2022-12-29T19:20:47.234Z,15.93
2022-12-29T19:23:16.935Z,21.20
2022-12-29T19:25:44.607Z,16.02
2022-12-29T19:28:18.916Z,15.88
2022-12-29T19:30:51.967Z,16.77
2022-12-29T19:33:20.887Z,16.98
2022-12-29T19:35:47.678Z,18.13
2022-12-29T19:38:14.731Z,18.75
2022-12-29T19:40:43.782Z,16.15
2022-12-29T19:43:12.158Z,14.55
2022-12-29T19:45:42.777Z,17.40
2022-12-29T19:48:14.129Z,14.75
2022-12-29T19:50:40.773Z,16.58
2022-12-29T19:53:07.369Z,15.05
2022-12-29T19:55:37.126Z,17.65
2022-12-29T19:58:04.021Z,19.67
2022-12-29T20:00:30.700Z,16.33
2022-12-29T20:02:57.437Z,20.48
2022-12-29T20:05:24.108Z,17.90
2022-12-29T20:07:50.636Z,15.48
2022-12-29T20:10:17.261Z,19.63
2022-12-29T20:12:43.836Z,13.50
2022-12-29T20:15:12.692Z,17.83
2022-12-29T20:20:27.315Z,16.23
2022-12-29T20:22:53.949Z,17.27
2022-12-29T20:28:06.988Z,16.50
2022-12-29T20:30:33.559Z,16.55
2022-12-29T20:33:06.115Z,15.25
2022-12-29T20:35:34.788Z,17.58
2022-12-29T20:38:01.327Z,16.00
2022-12-29T20:40:27.928Z,16.08
2022-12-29T20:42:54.476Z,17.75
2022-12-29T20:45:20.984Z,18.27
2022-12-29T20:47:47.529Z,16.20
2022-12-29T20:50:15.225Z,16.98
2022-12-29T20:52:41.959Z,14.85
2022-12-29T20:55:08.819Z,18.73
2022-12-29T20:58:05.628Z,16.60
2022-12-29T21:00:22.795Z,17.40
2022-12-29T21:02:49.817Z,16.45
2022-12-29T21:05:27.547Z,17.42
2022-12-29T21:07:55.496Z,19.67
2022-12-29T21:10:22.558Z,16.58
2022-12-29T21:12:49.203Z,18.50
2022-12-29T21:15:17.041Z,15.07
2022-12-29T21:17:44.539Z,14.60
2022-12-29T21:20:19.963Z,14.32
2022-12-29T21:22:47.706Z,15.27
2022-12-29T21:25:14.389Z,19.00
2022-12-29T21:27:46.959Z,14.40
2022-12-29T21:30:13.871Z,15.73
2022-12-29T21:32:41.514Z,15.02
2022-12-29T21:35:09.599Z,14.88
2022-12-29T21:37:36.810Z,15.80
2022-12-29T21:40:04.754Z,18.27
2022-12-29T21:42:31.705Z,19.27
2022-12-29T21:45:24.307Z,16.33
2022-12-29T21:48:16.153Z,15.80
2022-12-29T21:51:03.945Z,17.58
2022-12-29T21:53:38.070Z,15.23
2022-12-29T21:56:09.293Z,18.77
2022-12-29T21:58:57.654Z,16.15
2022-12-29T22:01:44.442Z,18.08
2022-12-29T22:04:34.956Z,17.60
2022-12-29T22:07:21.509Z,20.25
2022-12-29T22:10:07.012Z,21.13
2022-12-29T22:12:52.563Z,20.50
2022-12-29T22:15:19.248Z,18.10
2022-12-29T22:17:51.122Z,20.25
2022-12-29T22:20:19.926Z,19.90
2022-12-29T22:22:47.097Z,19.45
2022-12-29T22:25:14.517Z,18.30
2022-12-29T22:27:41.535Z,18.50
2022-12-29T22:30:09.034Z,19.65
2022-12-29T22:32:35.985Z,16.52
2022-12-29T22:35:07.824Z,18.65
2022-12-29T22:37:35.411Z,16.95
2022-12-29T22:40:02.170Z,17.35
2022-12-29T22:42:28.704Z,19.80
2022-12-29T22:44:55.260Z,18.23
2022-12-29T22:47:22.048Z,20.90
2022-12-29T22:49:48.599Z,17.55
2022-12-29T22:52:15.084Z,19.95
2022-12-29T22:54:41.573Z,11.32
2022-12-29T22:57:08.079Z,10.48
2022-12-29T22:59:34.802Z,20.83
2022-12-29T23:02:01.608Z,21.20
2022-12-29T23:07:15.067Z,19.20
2022-12-29T23:09:41.535Z,19.60
2022-12-29T23:12:08.067Z,21.10
2022-12-29T23:14:34.640Z,20.65
2022-12-29T23:17:01.144Z,17.75
2022-12-29T23:19:27.651Z,16.52
2022-12-29T23:21:54.192Z,19.70
2022-12-29T23:24:20.707Z,15.27
2022-12-29T23:26:48.166Z,17.35
2022-12-29T23:29:16.944Z,16.63
2022-12-29T23:31:44.113Z,16.05
2022-12-29T23:34:13.075Z,20.35
2022-12-29T23:36:40.576Z,18.42
2022-12-29T23:39:08.944Z,15.60
2022-12-29T23:41:35.572Z,20.08
2022-12-29T23:44:02.168Z,18.20
2022-12-29T23:46:29.786Z,15.95
2022-12-29T23:48:56.764Z,14.32
2022-12-29T23:51:23.302Z,15.38
2022-12-29T23:53:49.827Z,16.35
2022-12-29T23:56:19.518Z,15.13
2022-12-29T23:58:46.239Z,17.25
